Time;durP1;ratioP1;P1;durP2;ratioP2;P2;SDS_P1;SDS_P2;PMS_P1;PMS_P2;Temp;Humidity;BMP_temperature;BMP_pressure;BME280_temperature;BME280_humidity;BME280_pressure;Samples;Min_cycle;Max_cycle;Signal;HPM_P1;HPM_P2
2021/10/27 00:02:23;;;;;;;3.08;1.55;;;10.40;66.80;;;;;;2371530;53;20914;-73
2021/10/27 00:04:49;;;;;;;3.33;1.50;;;10.40;66.70;;;;;;2356086;53;21011;-71
2021/10/27 00:07:16;;;;;;;4.65;1.37;;;10.40;66.80;;;;;;2372507;53;21455;-72
2021/10/27 00:09:42;;;;;;;2.58;1.20;;;10.30;66.80;;;;;;2603180;52;21025;-71
2021/10/27 00:12:09;;;;;;;2.45;1.20;;;10.30;66.80;;;;;;2344261;53;21387;-71
2021/10/27 00:14:36;;;;;;;2.20;1.02;;;10.30;66.80;;;;;;2346242;53;20980;-71
2021/10/27 00:17:03;;;;;;;2.58;1.00;;;10.30;66.90;;;;;;2345803;53;20944;-72
2021/10/27 00:19:29;;;;;;;2.60;1.20;;;10.30;66.90;;;;;;2320854;54;20949;-71
2021/10/27 00:21:56;;;;;;;3.00;1.15;;;10.30;67.00;;;;;;2561296;53;20979;-72
2021/10/27 00:24:22;;;;;;;2.35;1.00;;;10.20;67.10;;;;;;2342744;53;21448;-72
2021/10/27 00:26:49;;;;;;;2.10;1.08;;;10.20;67.20;;;;;;2351034;53;20943;-72
2021/10/27 00:29:15;;;;;;;2.08;1.00;;;10.20;67.30;;;;;;2344191;53;20984;-72
2021/10/27 00:31:42;;;;;;;2.83;1.17;;;10.20;67.50;;;;;;2466746;53;21538;-71
2021/10/27 00:34:08;;;;;;;2.70;1.23;;;10.20;67.70;;;;;;2320444;54;21346;-71
2021/10/27 00:36:35;;;;;;;3.67;1.50;;;10.20;67.70;;;;;;2341277;53;20979;-72
2021/10/27 00:39:01;;;;;;;5.18;1.45;;;10.20;67.50;;;;;;2370911;53;21014;-72
2021/10/27 00:41:27;;;;;;;3.58;1.62;;;10.20;67.50;;;;;;2351211;53;20945;-72
2021/10/27 00:43:54;;;;;;;3.78;1.40;;;10.20;67.50;;;;;;2369071;53;20938;-72
2021/10/27 00:46:22;;;;;;;2.25;1.10;;;10.20;67.50;;;;;;2371604;53;21033;-71
2021/10/27 00:48:50;;;;;;;3.05;1.52;;;10.20;67.40;;;;;;2356361;53;21022;-72
2021/10/27 00:51:19;;;;;;;3.25;1.20;;;10.20;67.40;;;;;;2579131;53;21080;-70
2021/10/27 00:53:46;;;;;;;3.22;1.12;;;10.20;67.70;;;;;;2332385;54;20983;-71
2021/10/27 00:56:13;;;;;;;3.53;1.35;;;10.20;67.50;;;;;;2351924;53;20983;-70
2021/10/27 00:58:40;;;;;;;3.10;1.20;;;10.20;67.50;;;;;;2371523;53;21085;-71
2021/10/27 01:01:06;;;;;;;4.00;1.30;;;10.20;67.40;;;;;;2398448;52;20987;-71
2021/10/27 01:03:35;;;;;;;2.75;1.30;;;10.20;67.20;;;;;;2351752;53;20983;-71
2021/10/27 01:06:03;;;;;;;2.83;1.45;;;10.20;67.20;;;;;;2398355;53;20942;-72
2021/10/27 01:08:31;;;;;;;3.05;1.50;;;10.10;67.00;;;;;;2350994;54;20997;-72
2021/10/27 01:10:57;;;;;;;3.50;1.37;;;10.10;67.00;;;;;;2371958;53;21451;-72
2021/10/27 01:13:24;;;;;;;2.83;1.40;;;10.10;67.00;;;;;;2373825;53;20949;-71
2021/10/27 01:15:50;;;;;;;3.10;1.40;;;10.00;67.00;;;;;;2399989;53;21459;-72
2021/10/27 01:18:17;;;;;;;2.97;1.60;;;10.00;67.00;;;;;;2358168;53;20949;-70
2021/10/27 01:20:44;;;;;;;4.60;1.70;;;10.00;67.00;;;;;;2365549;53;20997;-72
2021/10/27 01:23:11;;;;;;;2.80;1.20;;;10.00;67.00;;;;;;2370459;53;21011;-71
2021/10/27 01:25:37;;;;;;;2.58;1.35;;;9.90;68.00;;;;;;2624234;52;20954;-71
2021/10/27 01:28:04;;;;;;;2.95;1.27;;;9.90;68.00;;;;;;2369953;53;20933;-71
2021/10/27 01:30:30;;;;;;;2.50;1.30;;;9.90;68.00;;;;;;2485264;52;21510;-71
2021/10/27 01:32:57;;;;;;;3.62;1.70;;;9.90;68.10;;;;;;2359224;53;21049;-72
2021/10/27 01:35:26;;;;;;;3.55;1.70;;;9.90;68.10;;;;;;2366671;53;21392;-71
2021/10/27 01:37:53;;;;;;;3.25;1.58;;;9.80;67.90;;;;;;2356141;53;21026;-72
2021/10/27 01:40:20;;;;;;;3.28;1.62;;;9.80;67.80;;;;;;2460471;52;20966;-72
2021/10/27 01:42:46;;;;;;;3.37;1.70;;;9.80;67.80;;;;;;2357470;53;21019;-72
2021/10/27 01:45:13;;;;;;;3.30;1.33;;;9.80;68.00;;;;;;2370027;53;20982;-72
2021/10/27 01:47:43;;;;;;;2.55;1.20;;;9.70;67.90;;;;;;2364004;52;21039;-71
2021/10/27 01:50:09;;;;;;;3.22;1.58;;;9.70;67.90;;;;;;2362975;53;21617;-72
2021/10/27 01:52:36;;;;;;;3.20;1.60;;;9.70;68.00;;;;;;2371580;53;20966;-71
2021/10/27 01:55:04;;;;;;;3.10;1.62;;;9.70;68.00;;;;;;2370847;53;20989;-71
2021/10/27 01:57:33;;;;;;;3.35;1.50;;;9.60;67.90;;;;;;2368913;53;20998;-72
2021/10/27 02:00:00;;;;;;;2.62;1.50;;;9.60;67.80;;;;;;2380809;52;20935;-72
2021/10/27 02:02:51;;;;;;;3.58;1.42;;;9.60;67.90;;;;;;2371615;53;21006;-72
2021/10/27 02:05:17;;;;;;;3.05;1.48;;;9.60;67.70;;;;;;2361108;54;21046;-71
2021/10/27 02:07:46;;;;;;;2.85;1.45;;;9.50;67.80;;;;;;2324844;53;20909;-72
2021/10/27 02:10:13;;;;;;;3.22;1.70;;;9.50;67.70;;;;;;2399567;53;21069;-72
2021/10/27 02:12:40;;;;;;;3.35;1.80;;;9.50;67.70;;;;;;2337844;54;20946;-72
2021/10/27 02:15:07;;;;;;;3.95;1.80;;;9.50;67.80;;;;;;2361394;53;20942;-72
2021/10/27 02:17:33;;;;;;;3.67;1.98;;;9.40;67.80;;;;;;2337745;53;21082;-71
2021/10/27 02:20:00;;;;;;;4.30;1.80;;;9.40;67.90;;;;;;2330308;54;20990;-71
2021/10/27 02:22:27;;;;;;;2.70;1.30;;;9.40;68.00;;;;;;2348963;54;21914;-72
2021/10/27 02:24:53;;;;;;;3.62;1.48;;;9.40;68.00;;;;;;2584531;53;20917;-71
2021/10/27 02:27:19;;;;;;;4.20;1.60;;;9.40;68.00;;;;;;2343982;55;20964;-71
2021/10/27 02:29:46;;;;;;;4.03;1.75;;;9.30;67.90;;;;;;2349304;53;21605;-71
2021/10/27 02:32:12;;;;;;;4.75;1.83;;;9.30;67.80;;;;;;2343008;55;20955;-72
2021/10/27 02:34:39;;;;;;;7.37;1.70;;;9.30;67.80;;;;;;2422864;53;20981;-72
2021/10/27 02:37:06;;;;;;;3.85;1.77;;;9.30;67.90;;;;;;2459113;53;20949;-71
2021/10/27 02:39:33;;;;;;;3.17;1.87;;;9.30;67.90;;;;;;2401459;53;20983;-71
2021/10/27 02:42:00;;;;;;;3.42;1.80;;;9.30;68.00;;;;;;2326906;54;20977;-71
2021/10/27 02:44:27;;;;;;;3.28;1.33;;;9.20;67.80;;;;;;2320660;54;20972;-72
2021/10/27 02:46:53;;;;;;;3.75;1.80;;;9.20;67.80;;;;;;2335872;54;20925;-71
2021/10/27 02:49:20;;;;;;;3.33;1.58;;;9.20;67.80;;;;;;2344843;53;20928;-71
2021/10/27 02:51:46;;;;;;;3.42;1.80;;;9.20;67.80;;;;;;2352210;53;20953;-71
2021/10/27 02:54:14;;;;;;;3.37;1.77;;;9.10;67.70;;;;;;2624124;52;21017;-72
2021/10/27 02:56:43;;;;;;;3.37;1.48;;;9.10;67.80;;;;;;2371140;53;21013;-72
2021/10/27 02:59:10;;;;;;;3.15;1.60;;;9.10;67.80;;;;;;2361350;53;20923;-72
2021/10/27 03:01:36;;;;;;;2.40;1.30;;;9.10;67.90;;;;;;2361964;53;21796;-71
2021/10/27 03:04:03;;;;;;;2.50;1.30;;;9.10;68.00;;;;;;2371444;53;20922;-71
2021/10/27 03:06:32;;;;;;;3.30;1.55;;;9.10;68.00;;;;;;2565939;52;20926;-71
2021/10/27 03:08:58;;;;;;;3.78;1.75;;;9.00;67.80;;;;;;2624110;52;21721;-71
2021/10/27 03:11:25;;;;;;;3.08;1.75;;;9.00;67.80;;;;;;2371946;53;21061;-71
2021/10/27 03:13:54;;;;;;;2.92;1.42;;;9.00;67.80;;;;;;2371264;53;21012;-71
2021/10/27 03:16:20;;;;;;;3.03;1.70;;;9.00;67.80;;;;;;2366869;52;20951;-71
2021/10/27 03:18:47;;;;;;;3.35;1.80;;;9.00;67.80;;;;;;2338896;53;21022;-71
2021/10/27 03:21:13;;;;;;;3.83;1.60;;;8.90;67.70;;;;;;2347042;54;20942;-70
2021/10/27 03:23:40;;;;;;;3.40;1.73;;;8.90;67.70;;;;;;2346832;53;20948;-72
2021/10/27 03:26:07;;;;;;;3.22;1.75;;;8.90;67.70;;;;;;2341732;54;20918;-72
2021/10/27 03:28:33;;;;;;;2.85;1.50;;;8.90;67.70;;;;;;2370514;53;21018;-72
2021/10/27 03:30:59;;;;;;;3.00;1.60;;;8.90;67.80;;;;;;2348015;54;20982;-71
2021/10/27 03:33:26;;;;;;;3.12;1.60;;;8.80;67.70;;;;;;2477624;52;21387;-71
2021/10/27 03:35:53;;;;;;;4.20;1.73;;;8.80;67.80;;;;;;2369853;53;20939;-71
2021/10/27 03:38:19;;;;;;;3.42;1.70;;;8.80;67.90;;;;;;2390338;52;21462;-71
2021/10/27 03:40:45;;;;;;;4.00;1.90;;;8.80;67.90;;;;;;2347339;53;20992;-71
2021/10/27 03:43:14;;;;;;;3.87;1.77;;;8.80;67.90;;;;;;2341345;54;20935;-71
2021/10/27 03:45:40;;;;;;;3.10;1.70;;;8.70;67.80;;;;;;2523980;52;20922;-72
2021/10/27 03:48:07;;;;;;;3.42;1.75;;;8.70;67.90;;;;;;2376250;52;21017;-71
2021/10/27 03:50:33;;;;;;;3.85;1.75;;;8.70;67.90;;;;;;2370791;53;21541;-70
2021/10/27 03:53:00;;;;;;;3.50;1.98;;;8.70;68.70;;;;;;2371572;53;20914;-70
2021/10/27 03:55:28;;;;;;;3.40;1.80;;;8.70;67.90;;;;;;2371323;53;20906;-72
2021/10/27 03:57:59;;;;;;;3.05;1.52;;;8.70;67.90;;;;;;2371763;53;20981;-71
2021/10/27 04:00:25;;;;;;;3.85;1.80;;;8.70;67.90;;;;;;2371082;53;21855;-72
2021/10/27 04:02:52;;;;;;;4.12;2.03;;;8.60;67.80;;;;;;2360804;53;20923;-70
2021/10/27 04:05:18;;;;;;;4.12;1.90;;;8.60;67.80;;;;;;2362859;53;21303;-71
2021/10/27 04:07:45;;;;;;;3.10;1.60;;;8.60;67.80;;;;;;2372057;53;21017;-72
2021/10/27 04:10:12;;;;;;;4.07;2.12;;;8.60;67.90;;;;;;2458581;52;21001;-71
2021/10/27 04:12:39;;;;;;;4.57;2.25;;;8.60;67.90;;;;;;2371096;53;20947;-72
2021/10/27 04:15:09;;;;;;;4.00;1.75;;;8.60;68.00;;;;;;2367701;53;20982;-70
2021/10/27 04:17:35;;;;;;;3.83;1.65;;;8.60;67.90;;;;;;2352983;53;21034;-71
2021/10/27 04:20:05;;;;;;;3.37;1.70;;;8.50;67.90;;;;;;2350085;53;21037;-71
2021/10/27 04:22:32;;;;;;;3.47;1.73;;;8.50;68.00;;;;;;2353199;53;20945;-72
2021/10/27 04:24:58;;;;;;;4.78;2.53;;;8.50;68.00;;;;;;2358846;53;20982;-70
2021/10/27 04:27:24;;;;;;;4.93;2.33;;;8.50;68.00;;;;;;2363451;53;20965;-72
2021/10/27 04:29:51;;;;;;;5.07;2.53;;;8.50;68.00;;;;;;2352458;53;20947;-72
2021/10/27 04:32:17;;;;;;;4.68;2.17;;;8.50;68.00;;;;;;2350170;53;21007;-72
2021/10/27 04:35:25;;;;;;;4.10;2.15;;;8.50;68.00;;;;;;2347029;53;21016;-72
2021/10/27 04:37:52;;;;;;;3.47;1.98;;;8.50;68.00;;;;;;2360792;54;20956;-72
2021/10/27 04:40:18;;;;;;;4.87;2.10;;;8.40;68.00;;;;;;2337783;54;21313;-72
2021/10/27 04:42:45;;;;;;;5.20;1.90;;;8.40;68.00;;;;;;2355425;53;20945;-72
2021/10/27 04:45:13;;;;;;;4.72;2.12;;;8.40;68.00;;;;;;2367271;53;21483;-70
2021/10/27 04:47:43;;;;;;;3.67;2.03;;;8.40;68.00;;;;;;2370792;53;20950;-71
2021/10/27 04:50:10;;;;;;;3.60;1.80;;;8.40;68.00;;;;;;2318893;53;20964;-70
2021/10/27 04:52:37;;;;;;;4.07;2.28;;;8.40;68.10;;;;;;2375390;53;20953;-70
2021/10/27 04:55:04;;;;;;;4.43;1.90;;;8.40;68.10;;;;;;2370631;53;20910;-72
2021/10/27 04:57:33;;;;;;;3.80;2.20;;;8.40;68.10;;;;;;2371201;53;20944;-71
2021/10/27 05:00:02;;;;;;;5.05;2.03;;;8.40;68.10;;;;;;2369590;53;20978;-70
2021/10/27 05:02:29;;;;;;;4.03;1.92;;;8.30;68.00;;;;;;2348136;53;21136;-71
2021/10/27 05:04:55;;;;;;;3.87;1.95;;;8.30;68.00;;;;;;2372215;52;21025;-70
2021/10/27 05:07:22;;;;;;;5.35;1.90;;;8.30;68.00;;;;;;2370866;53;20970;-71
2021/10/27 05:09:48;;;;;;;3.75;1.70;;;8.30;68.10;;;;;;2370194;53;20989;-72
2021/10/27 05:12:15;;;;;;;4.12;1.90;;;8.30;68.20;;;;;;2347493;53;20987;-70
2021/10/27 05:14:42;;;;;;;4.28;1.90;;;8.30;68.30;;;;;;2454801;52;21792;-71
2021/10/27 05:17:11;;;;;;;4.78;2.08;;;8.40;68.40;;;;;;2363125;53;20974;-71
2021/10/27 05:19:41;;;;;;;5.82;3.50;;;8.30;68.40;;;;;;2369825;53;20974;-72
2021/10/27 05:22:08;;;;;;;5.12;2.65;;;8.30;68.40;;;;;;2354700;53;21072;-71
2021/10/27 05:24:37;;;;;;;5.75;2.35;;;8.30;68.40;;;;;;2362370;53;20994;-71
2021/10/27 05:27:04;;;;;;;4.28;2.20;;;8.40;68.50;;;;;;2334594;54;21442;-71
2021/10/27 05:29:30;;;;;;;5.87;2.33;;;8.30;68.40;;;;;;2361366;53;20965;-71
2021/10/27 05:31:57;;;;;;;5.60;2.60;;;8.30;68.40;;;;;;2353685;53;20949;-71
2021/10/27 05:34:24;;;;;;;4.18;2.30;;;8.30;68.40;;;;;;2374776;53;20922;-72
2021/10/27 05:36:50;;;;;;;5.62;2.53;;;8.30;68.50;;;;;;2353607;53;20954;-72
2021/10/27 05:39:17;;;;;;;4.53;2.20;;;8.30;68.60;;;;;;2356802;53;20942;-72
2021/10/27 05:41:46;;;;;;;5.78;3.05;;;8.30;68.60;;;;;;2418036;53;20959;-71
2021/10/27 05:44:12;;;;;;;7.47;3.50;;;8.30;68.70;;;;;;2348788;53;20956;-70
2021/10/27 05:46:44;;;;;;;4.65;2.58;;;8.30;68.60;;;;;;2338639;54;21057;-72
2021/10/27 05:49:20;;;;;;;4.20;1.92;;;8.40;68.70;;;;;;2361427;53;21002;-70
2021/10/27 05:51:50;;;;;;;4.18;1.98;;;8.40;68.70;;;;;;2345680;54;20978;-71
2021/10/27 05:57:24;;;;;;;3.55;2.10;;;8.30;68.60;;;;;;2370630;53;21005;-70
2021/10/27 05:59:51;;;;;;;4.40;2.45;;;8.40;68.40;;;;;;2383300;53;21081;-72
2021/10/27 06:02:18;;;;;;;4.82;2.97;;;8.40;68.60;;;;;;2370000;53;21835;-72
2021/10/27 06:04:44;;;;;;;6.28;2.92;;;8.30;68.40;;;;;;2369815;53;21448;-71
2021/10/27 06:07:11;;;;;;;4.70;2.83;;;8.30;68.50;;;;;;2370380;53;21800;-71
2021/10/27 06:09:38;;;;;;;5.03;2.75;;;8.30;68.50;;;;;;2370629;53;21059;-71
2021/10/27 06:12:08;;;;;;;5.50;3.20;;;8.30;68.50;;;;;;2369253;53;21816;-72
2021/10/27 06:14:35;;;;;;;5.22;2.83;;;8.40;68.60;;;;;;2337473;53;20933;-71
2021/10/27 06:17:02;;;;;;;6.18;3.08;;;8.30;68.50;;;;;;2355472;53;20975;-71
2021/10/27 06:19:28;;;;;;;4.60;2.80;;;8.30;68.50;;;;;;2330408;53;21411;-72
2021/10/27 06:21:54;;;;;;;5.25;2.92;;;8.30;68.50;;;;;;2370685;53;21819;-71
2021/10/27 06:24:20;;;;;;;4.47;2.58;;;8.30;68.50;;;;;;2370425;53;21719;-70
2021/10/27 06:26:48;;;;;;;4.50;2.60;;;8.30;68.40;;;;;;2417507;52;20982;-70
2021/10/27 06:29:33;;;;;;;3.85;2.25;;;8.30;68.50;;;;;;2344876;53;20920;-71
2021/10/27 06:32:14;;;;;;;4.72;2.55;;;8.30;68.60;;;;;;2347564;53;21468;-70
2021/10/27 06:34:51;;;;;;;5.82;2.58;;;8.30;68.60;;;;;;2329576;54;20940;-70
2021/10/27 06:48:11;;;;;;;3.62;2.00;;;8.40;68.70;;;;;;2366706;53;20910;-70
2021/10/27 06:50:40;;;;;;;4.90;2.67;;;8.40;68.90;;;;;;2359936;53;21514;-70
2021/10/27 06:53:07;;;;;;;5.00;2.67;;;8.40;69.00;;;;;;2338318;54;20985;-71
2021/10/27 06:55:37;;;;;;;5.70;3.40;;;8.40;69.30;;;;;;2369302;53;20929;-71
2021/10/27 06:58:05;;;;;;;5.95;3.55;;;8.40;69.30;;;;;;2365131;53;21071;-70
2021/10/27 07:00:42;;;;;;;4.70;3.10;;;8.40;69.40;;;;;;2352159;53;21017;-72
2021/10/27 07:03:31;;;;;;;5.87;3.20;;;8.50;69.70;;;;;;2354964;53;20972;-72
2021/10/27 07:16:46;;;;;;;5.43;2.97;;;8.70;70.00;;;;;;2563246;52;21446;-72
2021/10/27 07:19:13;;;;;;;3.35;2.00;;;8.70;70.10;;;;;;2371868;53;20966;-71
2021/10/27 07:21:39;;;;;;;3.03;1.55;;;8.80;70.40;;;;;;2346192;53;20938;-71
2021/10/27 07:24:05;;;;;;;3.67;1.70;;;8.80;70.60;;;;;;2402097;52;20969;-70
2021/10/27 07:26:32;;;;;;;2.92;1.60;;;8.90;70.80;;;;;;2370873;53;20930;-71
2021/10/27 07:28:58;;;;;;;3.25;1.60;;;8.90;71.00;;;;;;2370570;53;21287;-71
2021/10/27 07:31:27;;;;;;;5.78;1.80;;;9.00;71.20;;;;;;2423133;52;20919;-72
2021/10/27 07:33:58;;;;;;;4.00;1.50;;;9.10;71.40;;;;;;2447738;52;20931;-72
2021/10/27 07:36:43;;;;;;;2.92;1.37;;;9.20;71.50;;;;;;2356787;53;21490;-71
2021/10/27 07:41:53;;;;;;;3.80;1.98;;;9.30;71.60;;;;;;2362122;53;21049;-72
2021/10/27 07:44:24;;;;;;;4.50;1.62;;;9.40;71.70;;;;;;2357693;53;20956;-71
2021/10/27 07:46:51;;;;;;;6.65;1.60;;;9.60;71.80;;;;;;2475692;52;20957;-71
2021/10/27 07:49:18;;;;;;;3.30;1.60;;;9.60;71.60;;;;;;2334080;54;20976;-72
2021/10/27 07:51:44;;;;;;;6.32;1.35;;;9.60;71.50;;;;;;2360672;53;20942;-72
2021/10/27 07:54:13;;;;;;;2.87;1.50;;;9.70;71.60;;;;;;2372054;53;20967;-71
2021/10/27 07:56:39;;;;;;;2.97;1.45;;;9.80;71.80;;;;;;2470686;52;20981;-71
2021/10/27 07:59:07;;;;;;;2.55;1.52;;;9.80;71.80;;;;;;2446923;52;20995;-72
2021/10/27 08:01:34;;;;;;;3.87;1.65;;;9.90;72.00;;;;;;2356921;53;20927;-70
2021/10/27 08:04:01;;;;;;;2.70;1.37;;;10.00;70.90;;;;;;2377204;52;20934;-70
2021/10/27 08:06:28;;;;;;;2.67;1.42;;;10.00;70.90;;;;;;2346712;53;20985;-71
2021/10/27 08:08:55;;;;;;;2.58;1.40;;;10.10;71.00;;;;;;2349555;53;20916;-71
2021/10/27 08:11:21;;;;;;;3.30;1.42;;;10.20;71.10;;;;;;2355302;53;20955;-72
2021/10/27 08:13:48;;;;;;;2.65;1.35;;;10.30;71.20;;;;;;2340408;54;21001;-71
2021/10/27 08:16:15;;;;;;;2.70;1.45;;;10.30;71.20;;;;;;2365942;53;20942;-70
2021/10/27 08:18:42;;;;;;;2.60;1.45;;;10.40;71.30;;;;;;2355623;53;20977;-72
2021/10/27 08:21:08;;;;;;;5.20;1.52;;;10.50;71.40;;;;;;2330312;53;21076;-70
2021/10/27 08:23:39;;;;;;;3.90;1.80;;;10.60;71.50;;;;;;2347893;54;21210;-72
2021/10/27 08:26:10;;;;;;;3.12;1.62;;;10.70;71.60;;;;;;2359559;53;20950;-72
2021/10/27 08:28:41;;;;;;;3.62;1.87;;;10.80;71.70;;;;;;2413314;52;20980;-71
2021/10/27 08:31:57;;;;;;;5.28;3.00;;;10.90;71.80;;;;;;2339416;54;21410;-72
2021/10/27 08:34:35;;;;;;;4.00;2.50;;;10.90;71.60;;;;;;2367265;53;20953;-72
2021/10/27 08:37:01;;;;;;;5.00;2.20;;;11.10;71.70;;;;;;2477638;52;21442;-73
2021/10/27 08:39:28;;;;;;;2.95;1.67;;;11.10;71.70;;;;;;2370217;53;20982;-72
2021/10/27 08:41:54;;;;;;;3.67;2.12;;;11.20;71.90;;;;;;2347756;53;20914;-72
2021/10/27 08:44:22;;;;;;;4.97;2.22;;;11.30;72.70;;;;;;2477246;52;20983;-72
2021/10/27 08:46:49;;;;;;;3.83;2.47;;;11.40;72.20;;;;;;2345571;53;21423;-71
2021/10/27 08:49:18;;;;;;;3.85;2.10;;;11.50;72.30;;;;;;2373072;53;21018;-72
2021/10/27 08:51:45;;;;;;;4.25;2.25;;;11.60;72.40;;;;;;2334788;54;20996;-72
2021/10/27 08:54:13;;;;;;;4.87;2.12;;;11.80;72.70;;;;;;2377235;53;21871;-71
2021/10/27 08:56:42;;;;;;;4.47;2.12;;;11.80;72.60;;;;;;2297572;53;3258931;-73
2021/10/27 08:59:29;;;;;;;3.45;2.30;;;11.90;72.70;;;;;;2559618;52;20934;-72
2021/10/27 09:02:52;;;;;;;5.40;1.87;;;12.10;72.90;;;;;;2352475;53;20922;-73
2021/10/27 09:05:33;;;;;;;4.00;1.90;;;12.20;73.00;;;;;;2328868;54;20994;-72
2021/10/27 09:16:14;;;;;;;2.65;1.40;;;12.50;73.10;;;;;;2401235;53;21043;-73
2021/10/27 10:06:26;;;;;;;4.97;2.08;;;15.50;73.20;;;;;;2557456;53;20949;-74
2021/10/27 10:08:56;;;;;;;4.85;2.87;;;15.60;73.10;;;;;;2340299;53;20985;-75
2021/10/27 10:11:26;;;;;;;5.35;2.37;;;15.70;73.00;;;;;;2380997;53;21016;-73
2021/10/27 10:13:53;;;;;;;5.05;3.33;;;15.80;72.70;;;;;;2327040;54;21023;-73
2021/10/27 10:16:20;;;;;;;7.12;3.25;;;15.80;72.20;;;;;;2324442;54;21031;-72
2021/10/27 10:18:47;;;;;;;4.53;2.60;;;15.90;72.00;;;;;;2342240;53;21061;-75
2021/10/27 10:21:14;;;;;;;4.72;3.00;;;16.00;72.00;;;;;;2363765;53;20979;-72
2021/10/27 10:23:40;;;;;;;4.20;2.85;;;16.00;72.00;;;;;;2622885;52;21037;-72
2021/10/27 10:26:08;;;;;;;5.90;2.70;;;16.10;72.10;;;;;;2371543;53;20894;-72
2021/10/27 10:28:38;;;;;;;5.50;2.87;;;16.20;72.00;;;;;;2374918;52;21221;-71
2021/10/27 10:31:06;;;;;;;4.85;2.87;;;16.20;71.40;;;;;;2356254;53;22010;-72
2021/10/27 10:33:51;;;;;;;5.45;3.40;;;16.30;71.60;;;;;;2352801;53;21002;-72
2021/10/27 10:36:40;;;;;;;5.10;3.15;;;16.40;70.50;;;;;;2380285;52;21662;-72
2021/10/27 10:39:48;;;;;;;4.55;2.85;;;16.40;70.50;;;;;;2354173;53;21808;-73
2021/10/27 10:43:48;;;;;;;4.05;2.20;;;16.50;71.10;;;;;;2365854;53;21015;-73
2021/10/27 11:02:39;;;;;;;6.60;2.83;;;17.00;71.00;;;;;;2367428;53;20925;-73
2021/10/27 11:22:21;;;;;;;5.30;2.92;;;17.30;70.60;;;;;;2350306;54;20998;-73
2021/10/27 11:25:01;;;;;;;;;;;17.30;69.60;;;;;;2414398;52;21525;-77
2021/10/27 11:40:02;;;;;;;5.10;2.78;;;17.50;70.40;;;;;;2344225;53;20988;-72
2021/10/27 11:42:39;;;;;;;5.75;2.70;;;17.60;69.40;;;;;;2374051;53;21004;-74
2021/10/27 11:46:10;;;;;;;4.00;2.25;;;17.60;70.10;;;;;;2326377;54;21076;-71
2021/10/27 11:48:54;;;;;;;3.92;2.50;;;17.70;69.20;;;;;;2365897;53;20949;-73
2021/10/27 11:51:22;;;;;;;5.32;2.83;;;17.70;70.00;;;;;;2346270;54;20922;-72
2021/10/27 11:53:49;;;;;;;5.75;2.92;;;17.70;69.70;;;;;;2520779;52;20950;-74
2021/10/27 11:56:20;;;;;;;5.12;2.92;;;17.80;69.70;;;;;;2417200;52;21024;-72
2021/10/27 11:59:12;;;;;;;4.90;2.85;;;17.80;69.60;;;;;;2361942;53;21778;-74
2021/10/27 12:01:43;;;;;;;5.43;2.62;;;17.80;69.10;;;;;;2371138;53;21108;-73
2021/10/27 12:04:12;;;;;;;4.40;2.75;;;17.80;69.80;;;;;;2497003;52;20993;-71
2021/10/27 12:06:59;;;;;;;3.67;2.33;;;17.90;69.80;;;;;;2389504;52;20961;-73
2021/10/27 12:09:36;;;;;;;4.85;2.70;;;17.90;69.60;;;;;;2610267;52;20999;-72
2021/10/27 12:12:29;;;;;;;4.82;2.22;;;18.00;69.50;;;;;;2361046;53;21056;-74
2021/10/27 12:15:45;;;;;;;4.03;2.50;;;18.00;69.40;;;;;;2407798;52;20952;-72
2021/10/27 12:18:14;;;;;;;4.28;2.15;;;18.00;69.40;;;;;;2618100;52;20934;-73
2021/10/27 12:20:46;;;;;;;3.60;2.00;;;18.10;69.30;;;;;;2470445;52;21623;-73
2021/10/27 12:23:23;;;;;;;5.60;1.80;;;18.20;69.40;;;;;;2387453;52;20926;-73
2021/10/27 12:25:52;;;;;;;4.85;1.90;;;18.30;69.30;;;;;;2406740;52;21020;-73
2021/10/27 12:29:03;;;;;;;3.92;2.10;;;18.30;69.70;;;;;;2430047;52;21029;-71
2021/10/27 12:31:30;;;;;;;5.07;2.28;;;18.40;68.40;;;;;;2506754;52;21846;-73
2021/10/27 12:33:57;;;;;;;3.78;2.17;;;18.50;69.60;;;;;;2351320;53;20995;-73
2021/10/27 12:36:36;;;;;;;6.00;1.98;;;18.60;69.60;;;;;;2404504;53;20969;-72
2021/10/27 12:39:44;;;;;;;3.10;1.98;;;18.70;69.40;;;;;;2367309;53;21536;-73
2021/10/27 12:43:09;;;;;;;3.00;1.60;;;18.80;68.50;;;;;;2352766;53;22256;-74
2021/10/27 12:46:19;;;;;;;5.05;1.80;;;18.90;69.00;;;;;;2371112;53;21462;-72
2021/10/27 12:48:46;;;;;;;4.70;1.83;;;19.00;68.30;;;;;;2359071;53;20964;-73
2021/10/27 12:51:13;;;;;;;4.15;2.00;;;19.00;69.60;;;;;;2361709;53;20922;-74
2021/10/27 12:53:47;;;;;;;3.22;1.80;;;19.20;69.60;;;;;;2376647;52;20982;-74
2021/10/27 12:56:24;;;;;;;3.08;1.37;;;19.30;68.70;;;;;;2369556;53;20962;-75
2021/10/27 12:59:09;;;;;;;2.80;1.20;;;19.40;68.40;;;;;;2379645;52;20946;-74
2021/10/27 13:02:14;;;;;;;2.80;1.30;;;19.40;68.60;;;;;;2378918;52;21062;-74
2021/10/27 13:05:12;;;;;;;2.60;1.20;;;19.50;68.50;;;;;;2428754;52;21115;-73
2021/10/27 13:07:41;;;;;;;2.70;1.25;;;19.60;69.00;;;;;;2481166;52;21090;-72
2021/10/27 13:10:32;;;;;;;2.62;1.20;;;19.70;68.70;;;;;;2558488;52;20972;-74
2021/10/27 13:13:18;;;;;;;3.28;1.58;;;19.80;68.60;;;;;;2460152;53;21029;-75
2021/10/27 13:18:58;;;;;;;2.53;1.08;;;20.00;68.40;;;;;;2344294;54;20965;-74
2021/10/27 13:21:48;;;;;;;2.85;1.30;;;20.10;68.20;;;;;;2429129;52;20985;-72
2021/10/27 13:31:20;;;;;;;2.45;1.15;;;20.30;67.40;;;;;;2404628;52;20974;-73
2021/10/27 13:33:47;;;;;;;3.47;1.20;;;20.30;67.00;;;;;;2432478;53;20969;-73
2021/10/27 13:36:19;;;;;;;3.42;1.33;;;20.30;66.90;;;;;;2336093;53;20937;-73
2021/10/27 13:38:46;;;;;;;2.62;1.20;;;20.40;66.50;;;;;;2481423;52;20935;-75
2021/10/27 13:41:13;;;;;;;2.95;1.48;;;20.40;66.70;;;;;;2355201;53;21757;-74
2021/10/27 13:43:53;;;;;;;2.92;1.40;;;20.40;66.80;;;;;;2375627;52;20918;-73
2021/10/27 13:47:25;;;;;;;7.35;1.40;;;20.40;66.20;;;;;;2371208;53;20974;-74
2021/10/27 14:07:58;;;;;;;2.85;1.23;;;20.20;65.70;;;;;;2361857;53;21051;-74
2021/10/27 14:10:47;;;;;;;4.05;1.37;;;20.20;65.90;;;;;;2363689;53;20957;-73
2021/10/27 14:13:42;;;;;;;2.53;1.20;;;20.20;65.90;;;;;;2334297;54;21021;-74
2021/10/27 14:16:32;;;;;;;2.40;1.35;;;20.20;65.80;;;;;;2363393;53;21017;-74
2021/10/27 14:22:29;;;;;;;3.17;1.27;;;20.20;65.60;;;;;;2352058;53;20965;-73
2021/10/27 15:20:37;;;;;;;3.08;0.98;;;19.10;65.30;;;;;;2346829;54;20993;-76
2021/10/27 15:23:23;;;;;;;3.80;1.37;;;19.00;65.20;;;;;;2377332;52;21004;-72
2021/10/27 15:28:50;;;;;;;2.58;1.23;;;18.90;65.10;;;;;;2356510;53;20970;-73
2021/10/27 15:31:33;;;;;;;2.58;1.20;;;18.90;65.10;;;;;;2350016;53;20939;-73
2021/10/27 15:34:32;;;;;;;2.95;0.90;;;18.80;64.90;;;;;;2370797;53;20993;-74
2021/10/27 15:51:47;;;;;;;3.45;0.90;;;18.50;65.30;;;;;;2368235;53;21008;-74
2021/10/27 15:54:14;;;;;;;2.35;0.90;;;18.40;65.30;;;;;;2350231;53;21059;-73
2021/10/27 15:56:41;;;;;;;2.58;0.90;;;18.30;65.20;;;;;;2371152;53;20933;-74
2021/10/27 15:59:07;;;;;;;3.05;1.23;;;18.30;65.20;;;;;;2370981;53;20961;-73
2021/10/27 16:01:34;;;;;;;2.33;1.00;;;18.20;65.10;;;;;;2371532;53;20919;-74
2021/10/27 16:04:01;;;;;;;2.03;0.90;;;18.20;65.00;;;;;;2354261;52;20987;-72
2021/10/27 16:06:29;;;;;;;2.67;0.93;;;18.10;64.90;;;;;;2339235;54;21061;-74
2021/10/27 16:08:58;;;;;;;3.20;0.95;;;18.00;64.90;;;;;;2345875;53;21024;-73
2021/10/27 16:11:25;;;;;;;2.92;1.30;;;18.00;64.90;;;;;;2371145;53;21517;-74
2021/10/27 16:13:52;;;;;;;2.22;0.98;;;17.90;64.80;;;;;;2370718;53;21835;-72
2021/10/27 16:16:19;;;;;;;2.22;0.90;;;17.80;64.70;;;;;;2371740;53;20938;-72
2021/10/27 16:18:46;;;;;;;3.22;1.17;;;17.70;64.70;;;;;;2367886;53;21003;-72
2021/10/27 16:21:12;;;;;;;2.50;1.10;;;17.70;64.70;;;;;;2382902;53;21006;-73
2021/10/27 16:23:39;;;;;;;2.62;1.23;;;17.60;64.60;;;;;;2367537;53;21528;-72
2021/10/27 16:26:05;;;;;;;3.12;1.42;;;17.50;64.50;;;;;;2345372;53;20949;-72
2021/10/27 16:28:33;;;;;;;2.80;1.58;;;17.40;64.40;;;;;;2383861;53;21562;-73
2021/10/27 16:31:00;;;;;;;3.20;1.35;;;17.30;64.40;;;;;;2333762;54;20911;-73
2021/10/27 16:33:27;;;;;;;5.62;3.05;;;17.20;64.40;;;;;;2369920;53;20916;-71
2021/10/27 16:35:54;;;;;;;7.30;4.37;;;17.10;64.30;;;;;;2455270;53;21448;-74
2021/10/27 16:38:20;;;;;;;8.32;4.85;;;17.00;64.30;;;;;;2362149;53;20942;-73
2021/10/27 16:40:51;;;;;;;7.05;3.67;;;17.00;64.50;;;;;;2370608;53;20910;-74
2021/10/27 16:43:18;;;;;;;6.10;3.30;;;16.90;64.50;;;;;;2371997;53;20945;-72
2021/10/27 16:45:45;;;;;;;4.93;2.83;;;16.80;64.50;;;;;;2369829;53;21049;-73
2021/10/27 16:48:11;;;;;;;3.87;2.28;;;16.70;64.40;;;;;;2356913;52;20995;-72
2021/10/27 16:50:43;;;;;;;4.15;2.22;;;16.60;64.40;;;;;;2350925;53;21847;-72
2021/10/27 16:53:09;;;;;;;5.12;2.87;;;16.50;64.10;;;;;;2351379;53;21687;-72
2021/10/27 16:55:36;;;;;;;5.07;2.35;;;16.40;64.30;;;;;;2350296;53;21055;-72
2021/10/27 16:58:04;;;;;;;5.78;3.67;;;16.40;64.30;;;;;;2351610;54;21028;-73
2021/10/27 17:00:30;;;;;;;5.87;3.42;;;16.30;64.30;;;;;;2369428;53;20906;-73
2021/10/27 17:02:57;;;;;;;7.82;3.85;;;16.20;64.30;;;;;;2372374;52;20975;-73
2021/10/27 17:05:23;;;;;;;5.43;2.95;;;16.00;64.10;;;;;;2340529;53;21026;-73
2021/10/27 17:07:51;;;;;;;5.00;2.95;;;16.00;64.20;;;;;;2406397;52;21526;-75
2021/10/27 17:10:18;;;;;;;3.97;2.35;;;15.90;64.20;;;;;;2371064;53;21035;-73